sensor_id;sensor_type;location;lat;lon;timestamp;temperature;humidity
4602;DHT22;2313;48.552;9.370;2023-04-24T00:01:13;12.10;99.90
4602;DHT22;2313;48.552;9.370;2023-04-24T00:03:40;12.10;99.90
4602;DHT22;2313;48.552;9.370;2023-04-24T00:06:06;12.20;99.90
4602;DHT22;2313;48.552;9.370;2023-04-24T00:08:34;12.10;99.90
4602;DHT22;2313;48.552;9.370;2023-04-24T00:11:00;12.20;99.90
4602;DHT22;2313;48.552;9.370;2023-04-24T00:13:25;12.20;99.90
4602;DHT22;2313;48.552;9.370;2023-04-24T00:15:54;12.20;99.90
4602;DHT22;2313;48.552;9.370;2023-04-24T00:18:19;12.10;99.90
4602;DHT22;2313;48.552;9.370;2023-04-24T00:20:45;12.20;99.90
4602;DHT22;2313;48.552;9.370;2023-04-24T00:23:11;12.20;99.90
4602;DHT22;2313;48.552;9.370;2023-04-24T00:25:37;12.20;99.90
4602;DHT22;2313;48.552;9.370;2023-04-24T00:28:03;12.20;99.90
4602;DHT22;2313;48.552;9.370;2023-04-24T00:30:28;12.20;99.90
4602;DHT22;2313;48.552;9.370;2023-04-24T00:32:54;12.20;99.90
4602;DHT22;2313;48.552;9.370;2023-04-24T00:35:19;12.20;99.90
4602;DHT22;2313;48.552;9.370;2023-04-24T00:37:45;12.20;99.90
4602;DHT22;2313;48.552;9.370;2023-04-24T00:40:11;12.20;99.90
4602;DHT22;2313;48.552;9.370;2023-04-24T00:42:37;12.30;99.90
4602;DHT22;2313;48.552;9.370;2023-04-24T00:45:04;12.30;99.90
4602;DHT22;2313;48.552;9.370;2023-04-24T00:47:32;12.20;99.90
4602;DHT22;2313;48.552;9.370;2023-04-24T00:49:57;12.30;99.90
4602;DHT22;2313;48.552;9.370;2023-04-24T00:52:23;12.30;99.90
4602;DHT22;2313;48.552;9.370;2023-04-24T00:54:49;12.40;99.90
4602;DHT22;2313;48.552;9.370;2023-04-24T00:57:15;12.30;99.90
4602;DHT22;2313;48.552;9.370;2023-04-24T00:59:42;12.40;99.90
4602;DHT22;2313;48.552;9.370;2023-04-24T01:02:09;12.40;99.90
4602;DHT22;2313;48.552;9.370;2023-04-24T01:04:36;12.30;99.90
4602;DHT22;2313;48.552;9.370;2023-04-24T01:07:02;12.30;99.90
4602;DHT22;2313;48.552;9.370;2023-04-24T01:09:28;12.30;99.90
4602;DHT22;2313;48.552;9.370;2023-04-24T01:11:54;12.20;99.90
4602;DHT22;2313;48.552;9.370;2023-04-24T01:14:20;12.20;99.90
4602;DHT22;2313;48.552;9.370;2023-04-24T01:16:46;12.10;99.90
4602;DHT22;2313;48.552;9.370;2023-04-24T01:19:13;12.00;99.90
4602;DHT22;2313;48.552;9.370;2023-04-24T01:21:40;12.00;99.90
4602;DHT22;2313;48.552;9.370;2023-04-24T01:24:07;12.00;99.90
4602;DHT22;2313;48.552;9.370;2023-04-24T01:26:33;12.00;99.90
4602;DHT22;2313;48.552;9.370;2023-04-24T01:28:59;12.00;99.90
4602;DHT22;2313;48.552;9.370;2023-04-24T01:31:24;12.00;99.90
4602;DHT22;2313;48.552;9.370;2023-04-24T01:33:51;12.00;99.90
4602;DHT22;2313;48.552;9.370;2023-04-24T01:36:18;11.90;99.90
4602;DHT22;2313;48.552;9.370;2023-04-24T01:38:44;11.90;99.90
4602;DHT22;2313;48.552;9.370;2023-04-24T01:41:10;11.80;99.90
4602;DHT22;2313;48.552;9.370;2023-04-24T01:43:36;11.70;99.90
4602;DHT22;2313;48.552;9.370;2023-04-24T01:46:01;11.70;99.90
4602;DHT22;2313;48.552;9.370;2023-04-24T01:48:27;11.80;99.90
4602;DHT22;2313;48.552;9.370;2023-04-24T01:50:53;11.70;99.90
4602;DHT22;2313;48.552;9.370;2023-04-24T01:53:19;11.60;99.90
4602;DHT22;2313;48.552;9.370;2023-04-24T01:55:45;11.50;99.90
4602;DHT22;2313;48.552;9.370;2023-04-24T01:58:10;11.40;99.90
4602;DHT22;2313;48.552;9.370;2023-04-24T02:00:36;11.40;99.90
4602;DHT22;2313;48.552;9.370;2023-04-24T02:03:01;11.30;99.90
4602;DHT22;2313;48.552;9.370;2023-04-24T02:05:28;11.20;99.90
4602;DHT22;2313;48.552;9.370;2023-04-24T02:07:54;11.10;99.90
4602;DHT22;2313;48.552;9.370;2023-04-24T02:10:19;11.00;99.90
4602;DHT22;2313;48.552;9.370;2023-04-24T02:12:45;10.90;99.90
4602;DHT22;2313;48.552;9.370;2023-04-24T02:15:11;10.90;99.90
4602;DHT22;2313;48.552;9.370;2023-04-24T02:17:37;10.80;99.90
4602;DHT22;2313;48.552;9.370;2023-04-24T02:20:04;10.90;99.90
4602;DHT22;2313;48.552;9.370;2023-04-24T02:22:30;10.90;99.90
4602;DHT22;2313;48.552;9.370;2023-04-24T02:24:56;10.90;99.90
4602;DHT22;2313;48.552;9.370;2023-04-24T02:27:21;10.90;99.90
4602;DHT22;2313;48.552;9.370;2023-04-24T02:29:47;11.00;99.90
4602;DHT22;2313;48.552;9.370;2023-04-24T02:32:13;11.00;99.90
4602;DHT22;2313;48.552;9.370;2023-04-24T02:34:40;11.10;99.90
4602;DHT22;2313;48.552;9.370;2023-04-24T02:37:06;11.10;99.90
4602;DHT22;2313;48.552;9.370;2023-04-24T02:39:31;11.10;99.90
4602;DHT22;2313;48.552;9.370;2023-04-24T02:41:57;11.10;99.90
4602;DHT22;2313;48.552;9.370;2023-04-24T02:44:23;11.10;99.90
4602;DHT22;2313;48.552;9.370;2023-04-24T02:46:48;11.00;99.90
4602;DHT22;2313;48.552;9.370;2023-04-24T02:49:14;11.00;99.90
4602;DHT22;2313;48.552;9.370;2023-04-24T02:51:40;10.90;99.90
4602;DHT22;2313;48.552;9.370;2023-04-24T02:54:07;10.80;99.90
4602;DHT22;2313;48.552;9.370;2023-04-24T02:56:34;10.80;99.90
4602;DHT22;2313;48.552;9.370;2023-04-24T02:58:59;10.70;99.90
4602;DHT22;2313;48.552;9.370;2023-04-24T03:01:25;10.70;99.90
4602;DHT22;2313;48.552;9.370;2023-04-24T03:03:51;10.80;99.90
4602;DHT22;2313;48.552;9.370;2023-04-24T03:06:16;10.80;99.90
4602;DHT22;2313;48.552;9.370;2023-04-24T03:08:42;10.80;99.90
4602;DHT22;2313;48.552;9.370;2023-04-24T03:11:07;10.90;99.90
4602;DHT22;2313;48.552;9.370;2023-04-24T03:13:33;10.90;99.90
4602;DHT22;2313;48.552;9.370;2023-04-24T03:15:58;10.80;99.90
4602;DHT22;2313;48.552;9.370;2023-04-24T03:18:24;10.70;99.90
4602;DHT22;2313;48.552;9.370;2023-04-24T03:20:50;10.80;99.90
4602;DHT22;2313;48.552;9.370;2023-04-24T03:23:16;10.80;99.90
4602;DHT22;2313;48.552;9.370;2023-04-24T03:25:42;10.90;99.90
4602;DHT22;2313;48.552;9.370;2023-04-24T03:28:08;10.90;99.90
4602;DHT22;2313;48.552;9.370;2023-04-24T03:30:34;10.90;99.90
4602;DHT22;2313;48.552;9.370;2023-04-24T03:33:00;10.90;99.90
4602;DHT22;2313;48.552;9.370;2023-04-24T03:35:25;10.90;99.90
4602;DHT22;2313;48.552;9.370;2023-04-24T03:37:51;10.90;99.90
4602;DHT22;2313;48.552;9.370;2023-04-24T03:40:17;10.80;99.90
4602;DHT22;2313;48.552;9.370;2023-04-24T03:42:42;10.80;99.90
4602;DHT22;2313;48.552;9.370;2023-04-24T03:45:08;10.70;99.90
4602;DHT22;2313;48.552;9.370;2023-04-24T03:47:34;10.70;99.90
4602;DHT22;2313;48.552;9.370;2023-04-24T03:50:00;10.70;99.90
4602;DHT22;2313;48.552;9.370;2023-04-24T03:52:25;10.60;99.90
4602;DHT22;2313;48.552;9.370;2023-04-24T03:54:51;10.60;99.90
4602;DHT22;2313;48.552;9.370;2023-04-24T03:57:16;10.60;99.90
4602;DHT22;2313;48.552;9.370;2023-04-24T03:59:42;10.50;99.90
4602;DHT22;2313;48.552;9.370;2023-04-24T04:02:08;10.50;99.90
4602;DHT22;2313;48.552;9.370;2023-04-24T04:04:34;10.50;99.90
4602;DHT22;2313;48.552;9.370;2023-04-24T04:06:59;10.50;99.90
4602;DHT22;2313;48.552;9.370;2023-04-24T04:09:27;10.40;99.90
4602;DHT22;2313;48.552;9.370;2023-04-24T04:11:52;10.40;99.90
4602;DHT22;2313;48.552;9.370;2023-04-24T04:14:18;10.40;99.90
4602;DHT22;2313;48.552;9.370;2023-04-24T04:16:44;10.40;99.90
4602;DHT22;2313;48.552;9.370;2023-04-24T04:19:10;10.40;99.90
4602;DHT22;2313;48.552;9.370;2023-04-24T04:21:36;10.40;99.90
4602;DHT22;2313;48.552;9.370;2023-04-24T04:24:01;10.30;99.90
4602;DHT22;2313;48.552;9.370;2023-04-24T04:26:27;10.30;99.90
4602;DHT22;2313;48.552;9.370;2023-04-24T04:28:53;10.20;99.90
4602;DHT22;2313;48.552;9.370;2023-04-24T04:31:20;10.20;99.90
4602;DHT22;2313;48.552;9.370;2023-04-24T04:33:46;10.40;99.90
4602;DHT22;2313;48.552;9.370;2023-04-24T04:36:12;10.40;99.90
4602;DHT22;2313;48.552;9.370;2023-04-24T04:38:37;10.40;99.90
4602;DHT22;2313;48.552;9.370;2023-04-24T04:41:03;10.30;99.90
4602;DHT22;2313;48.552;9.370;2023-04-24T04:43:29;10.40;99.90
4602;DHT22;2313;48.552;9.370;2023-04-24T04:45:57;10.50;99.90
4602;DHT22;2313;48.552;9.370;2023-04-24T04:48:22;10.50;99.90
4602;DHT22;2313;48.552;9.370;2023-04-24T04:50:48;10.50;99.90
4602;DHT22;2313;48.552;9.370;2023-04-24T04:53:14;10.50;99.90
4602;DHT22;2313;48.552;9.370;2023-04-24T04:55:39;10.50;99.90
4602;DHT22;2313;48.552;9.370;2023-04-24T04:58:05;10.60;99.90
4602;DHT22;2313;48.552;9.370;2023-04-24T05:00:31;10.60;99.90
4602;DHT22;2313;48.552;9.370;2023-04-24T05:03:01;10.70;99.90
4602;DHT22;2313;48.552;9.370;2023-04-24T05:05:27;10.60;99.90
4602;DHT22;2313;48.552;9.370;2023-04-24T05:07:53;10.50;99.90
4602;DHT22;2313;48.552;9.370;2023-04-24T05:10:18;10.00;99.90
4602;DHT22;2313;48.552;9.370;2023-04-24T05:12:44;9.90;99.90
4602;DHT22;2313;48.552;9.370;2023-04-24T05:15:10;9.90;99.90
4602;DHT22;2313;48.552;9.370;2023-04-24T05:17:36;9.80;99.90
4602;DHT22;2313;48.552;9.370;2023-04-24T05:20:03;9.80;99.90
4602;DHT22;2313;48.552;9.370;2023-04-24T05:22:31;9.80;99.90
4602;DHT22;2313;48.552;9.370;2023-04-24T05:24:56;9.80;99.90
4602;DHT22;2313;48.552;9.370;2023-04-24T05:27:22;9.70;99.90
4602;DHT22;2313;48.552;9.370;2023-04-24T05:29:48;9.70;99.90
4602;DHT22;2313;48.552;9.370;2023-04-24T05:32:13;9.60;99.90
4602;DHT22;2313;48.552;9.370;2023-04-24T05:34:39;9.70;99.90
4602;DHT22;2313;48.552;9.370;2023-04-24T05:37:05;9.70;99.90
4602;DHT22;2313;48.552;9.370;2023-04-24T05:39:33;9.70;99.90
4602;DHT22;2313;48.552;9.370;2023-04-24T05:42:00;9.60;99.90
4602;DHT22;2313;48.552;9.370;2023-04-24T05:44:26;9.60;99.90
4602;DHT22;2313;48.552;9.370;2023-04-24T05:46:52;9.60;99.90
4602;DHT22;2313;48.552;9.370;2023-04-24T05:49:18;9.60;99.90
4602;DHT22;2313;48.552;9.370;2023-04-24T05:51:43;9.50;99.90
4602;DHT22;2313;48.552;9.370;2023-04-24T05:54:09;9.50;99.90
4602;DHT22;2313;48.552;9.370;2023-04-24T05:56:37;9.40;99.90
4602;DHT22;2313;48.552;9.370;2023-04-24T05:59:03;9.40;99.90
4602;DHT22;2313;48.552;9.370;2023-04-24T06:01:29;9.40;99.90
4602;DHT22;2313;48.552;9.370;2023-04-24T06:03:55;9.30;99.90
4602;DHT22;2313;48.552;9.370;2023-04-24T06:06:20;9.30;99.90
4602;DHT22;2313;48.552;9.370;2023-04-24T06:08:46;9.40;99.90
4602;DHT22;2313;48.552;9.370;2023-04-24T06:11:11;9.50;99.90
4602;DHT22;2313;48.552;9.370;2023-04-24T06:13:37;9.40;99.90
4602;DHT22;2313;48.552;9.370;2023-04-24T06:16:03;9.40;99.90
4602;DHT22;2313;48.552;9.370;2023-04-24T06:18:28;9.50;99.90
4602;DHT22;2313;48.552;9.370;2023-04-24T06:20:54;9.50;99.90
4602;DHT22;2313;48.552;9.370;2023-04-24T06:23:20;9.40;99.90
4602;DHT22;2313;48.552;9.370;2023-04-24T06:25:46;9.40;99.90
4602;DHT22;2313;48.552;9.370;2023-04-24T06:28:12;9.40;99.90
4602;DHT22;2313;48.552;9.370;2023-04-24T06:30:38;9.40;99.90
4602;DHT22;2313;48.552;9.370;2023-04-24T06:33:03;9.30;99.90
4602;DHT22;2313;48.552;9.370;2023-04-24T06:35:29;9.50;99.90
4602;DHT22;2313;48.552;9.370;2023-04-24T06:37:55;9.60;99.90
4602;DHT22;2313;48.552;9.370;2023-04-24T06:40:21;9.70;99.90
4602;DHT22;2313;48.552;9.370;2023-04-24T06:42:47;9.80;99.90
4602;DHT22;2313;48.552;9.370;2023-04-24T06:45:13;9.80;99.90
4602;DHT22;2313;48.552;9.370;2023-04-24T06:47:38;10.10;99.90
4602;DHT22;2313;48.552;9.370;2023-04-24T06:50:04;10.50;99.90
4602;DHT22;2313;48.552;9.370;2023-04-24T06:52:30;10.80;99.90
4602;DHT22;2313;48.552;9.370;2023-04-24T06:55:03;11.20;99.90
4602;DHT22;2313;48.552;9.370;2023-04-24T06:57:29;11.40;99.90
4602;DHT22;2313;48.552;9.370;2023-04-24T06:59:55;11.50;99.90
4602;DHT22;2313;48.552;9.370;2023-04-24T07:02:21;11.70;99.90
4602;DHT22;2313;48.552;9.370;2023-04-24T07:04:46;12.10;99.90
4602;DHT22;2313;48.552;9.370;2023-04-24T07:07:13;12.30;99.90
4602;DHT22;2313;48.552;9.370;2023-04-24T07:09:40;12.20;99.90
4602;DHT22;2313;48.552;9.370;2023-04-24T07:12:09;12.50;99.90
4602;DHT22;2313;48.552;9.370;2023-04-24T07:14:36;12.60;99.90
4602;DHT22;2313;48.552;9.370;2023-04-24T07:17:03;12.40;99.90
4602;DHT22;2313;48.552;9.370;2023-04-24T07:19:29;12.00;99.90
4602;DHT22;2313;48.552;9.370;2023-04-24T07:21:55;12.00;99.90
4602;DHT22;2313;48.552;9.370;2023-04-24T07:24:20;12.00;99.90
4602;DHT22;2313;48.552;9.370;2023-04-24T07:26:46;11.90;99.90
4602;DHT22;2313;48.552;9.370;2023-04-24T07:29:12;11.90;99.90
4602;DHT22;2313;48.552;9.370;2023-04-24T07:31:38;12.10;99.90
4602;DHT22;2313;48.552;9.370;2023-04-24T07:34:06;12.30;99.90
4602;DHT22;2313;48.552;9.370;2023-04-24T07:36:32;12.30;99.90
4602;DHT22;2313;48.552;9.370;2023-04-24T07:38:57;12.20;99.90
4602;DHT22;2313;48.552;9.370;2023-04-24T07:41:23;11.90;99.90
4602;DHT22;2313;48.552;9.370;2023-04-24T07:43:49;11.60;99.90
4602;DHT22;2313;48.552;9.370;2023-04-24T07:46:15;11.50;99.90
4602;DHT22;2313;48.552;9.370;2023-04-24T07:48:41;11.20;99.90
4602;DHT22;2313;48.552;9.370;2023-04-24T07:51:06;11.50;99.90
4602;DHT22;2313;48.552;9.370;2023-04-24T07:53:32;11.70;99.90
4602;DHT22;2313;48.552;9.370;2023-04-24T07:55:58;11.90;99.90
4602;DHT22;2313;48.552;9.370;2023-04-24T07:58:23;11.90;99.90
4602;DHT22;2313;48.552;9.370;2023-04-24T08:00:49;11.90;99.90
4602;DHT22;2313;48.552;9.370;2023-04-24T08:03:14;11.90;99.90
4602;DHT22;2313;48.552;9.370;2023-04-24T08:05:43;12.10;99.90
4602;DHT22;2313;48.552;9.370;2023-04-24T08:08:09;12.50;99.90
4602;DHT22;2313;48.552;9.370;2023-04-24T08:10:35;12.20;99.90
4602;DHT22;2313;48.552;9.370;2023-04-24T08:13:00;12.20;99.90
4602;DHT22;2313;48.552;9.370;2023-04-24T08:15:27;12.00;99.90
4602;DHT22;2313;48.552;9.370;2023-04-24T08:17:53;11.90;99.90
4602;DHT22;2313;48.552;9.370;2023-04-24T08:20:18;11.90;99.90
4602;DHT22;2313;48.552;9.370;2023-04-24T08:22:44;11.90;99.90
4602;DHT22;2313;48.552;9.370;2023-04-24T08:25:12;11.90;99.90
4602;DHT22;2313;48.552;9.370;2023-04-24T08:27:38;11.90;99.90
4602;DHT22;2313;48.552;9.370;2023-04-24T08:30:05;11.80;99.90
4602;DHT22;2313;48.552;9.370;2023-04-24T08:32:31;11.70;99.90
4602;DHT22;2313;48.552;9.370;2023-04-24T08:34:57;11.60;99.90
4602;DHT22;2313;48.552;9.370;2023-04-24T08:37:23;11.50;99.90
4602;DHT22;2313;48.552;9.370;2023-04-24T08:39:50;11.50;99.90
4602;DHT22;2313;48.552;9.370;2023-04-24T08:42:17;11.50;99.90
4602;DHT22;2313;48.552;9.370;2023-04-24T08:44:43;11.40;99.90
4602;DHT22;2313;48.552;9.370;2023-04-24T08:47:10;11.20;99.90
4602;DHT22;2313;48.552;9.370;2023-04-24T08:49:37;11.10;99.90
4602;DHT22;2313;48.552;9.370;2023-04-24T08:52:03;11.20;99.90
4602;DHT22;2313;48.552;9.370;2023-04-24T08:54:29;11.20;99.90
4602;DHT22;2313;48.552;9.370;2023-04-24T08:56:58;11.10;99.90
4602;DHT22;2313;48.552;9.370;2023-04-24T08:59:27;11.30;99.90
4602;DHT22;2313;48.552;9.370;2023-04-24T09:01:54;11.20;98.90
4602;DHT22;2313;48.552;9.370;2023-04-24T09:04:21;11.20;99.90
4602;DHT22;2313;48.552;9.370;2023-04-24T09:06:48;11.30;99.90
4602;DHT22;2313;48.552;9.370;2023-04-24T09:09:16;11.50;99.90
4602;DHT22;2313;48.552;9.370;2023-04-24T09:11:43;11.70;99.90
4602;DHT22;2313;48.552;9.370;2023-04-24T09:14:10;11.90;99.90
4602;DHT22;2313;48.552;9.370;2023-04-24T09:16:36;12.00;97.80
4602;DHT22;2313;48.552;9.370;2023-04-24T09:19:02;12.20;98.60
4602;DHT22;2313;48.552;9.370;2023-04-24T09:21:34;12.30;98.40
4602;DHT22;2313;48.552;9.370;2023-04-24T09:24:05;12.70;96.50
4602;DHT22;2313;48.552;9.370;2023-04-24T09:26:32;13.20;94.60
4602;DHT22;2313;48.552;9.370;2023-04-24T09:28:58;13.80;94.80
4602;DHT22;2313;48.552;9.370;2023-04-24T09:31:27;14.40;92.00
4602;DHT22;2313;48.552;9.370;2023-04-24T09:33:54;14.50;92.30
4602;DHT22;2313;48.552;9.370;2023-04-24T09:36:30;14.30;90.70
4602;DHT22;2313;48.552;9.370;2023-04-24T09:39:02;13.60;90.50
4602;DHT22;2313;48.552;9.370;2023-04-24T09:41:28;13.30;91.20
4602;DHT22;2313;48.552;9.370;2023-04-24T09:43:55;12.90;91.90
4602;DHT22;2313;48.552;9.370;2023-04-24T09:46:21;13.00;94.00
4602;DHT22;2313;48.552;9.370;2023-04-24T09:48:49;12.90;93.20
4602;DHT22;2313;48.552;9.370;2023-04-24T09:51:14;12.60;93.40
4602;DHT22;2313;48.552;9.370;2023-04-24T09:53:45;12.50;92.10
4602;DHT22;2313;48.552;9.370;2023-04-24T09:56:11;12.70;93.80
4602;DHT22;2313;48.552;9.370;2023-04-24T09:58:40;12.70;94.60
4602;DHT22;2313;48.552;9.370;2023-04-24T10:01:06;12.50;94.00
4602;DHT22;2313;48.552;9.370;2023-04-24T10:03:33;12.40;94.60
4602;DHT22;2313;48.552;9.370;2023-04-24T10:06:00;12.20;95.80
4602;DHT22;2313;48.552;9.370;2023-04-24T10:08:26;12.20;96.40
4602;DHT22;2313;48.552;9.370;2023-04-24T10:10:52;12.50;97.10
4602;DHT22;2313;48.552;9.370;2023-04-24T10:13:18;13.20;95.00
4602;DHT22;2313;48.552;9.370;2023-04-24T10:15:44;14.00;95.60
4602;DHT22;2313;48.552;9.370;2023-04-24T10:18:10;15.10;93.90
4602;DHT22;2313;48.552;9.370;2023-04-24T10:20:38;16.30;91.80
4602;DHT22;2313;48.552;9.370;2023-04-24T10:23:04;16.60;85.90
4602;DHT22;2313;48.552;9.370;2023-04-24T10:25:32;16.10;89.40
4602;DHT22;2313;48.552;9.370;2023-04-24T10:27:59;15.10;87.00
4602;DHT22;2313;48.552;9.370;2023-04-24T10:30:28;14.40;88.30
4602;DHT22;2313;48.552;9.370;2023-04-24T10:32:53;13.90;90.00
4602;DHT22;2313;48.552;9.370;2023-04-24T10:35:19;13.40;89.50
4602;DHT22;2313;48.552;9.370;2023-04-24T10:38:09;13.30;90.30
4602;DHT22;2313;48.552;9.370;2023-04-24T10:40:36;13.80;90.40
4602;DHT22;2313;48.552;9.370;2023-04-24T10:43:06;14.40;87.90
4602;DHT22;2313;48.552;9.370;2023-04-24T10:45:34;14.70;84.70
4602;DHT22;2313;48.552;9.370;2023-04-24T10:48:06;14.50;81.00
4602;DHT22;2313;48.552;9.370;2023-04-24T10:50:52;14.20;83.10
4602;DHT22;2313;48.552;9.370;2023-04-24T10:53:23;13.90;85.40
4602;DHT22;2313;48.552;9.370;2023-04-24T10:55:51;13.80;85.50
4602;DHT22;2313;48.552;9.370;2023-04-24T10:58:22;13.70;82.40
4602;DHT22;2313;48.552;9.370;2023-04-24T11:00:58;13.40;84.70
4602;DHT22;2313;48.552;9.370;2023-04-24T11:03:28;13.30;85.40
4602;DHT22;2313;48.552;9.370;2023-04-24T11:06:08;13.10;83.70
4602;DHT22;2313;48.552;9.370;2023-04-24T11:11:15;12.90;89.50
4602;DHT22;2313;48.552;9.370;2023-04-24T11:16:33;12.70;88.80
4602;DHT22;2313;48.552;9.370;2023-04-24T11:22:02;12.50;92.20
4602;DHT22;2313;48.552;9.370;2023-04-24T11:27:15;12.40;93.20
4602;DHT22;2313;48.552;9.370;2023-04-24T11:37:25;12.80;93.10
4602;DHT22;2313;48.552;9.370;2023-04-24T11:39:53;12.80;92.00
4602;DHT22;2313;48.552;9.370;2023-04-24T11:42:19;12.90;93.20
4602;DHT22;2313;48.552;9.370;2023-04-24T11:44:46;12.90;92.20
4602;DHT22;2313;48.552;9.370;2023-04-24T11:47:12;12.70;92.20
4602;DHT22;2313;48.552;9.370;2023-04-24T11:49:38;12.50;91.70
4602;DHT22;2313;48.552;9.370;2023-04-24T11:52:04;12.40;92.10
4602;DHT22;2313;48.552;9.370;2023-04-24T11:54:30;12.40;92.80
4602;DHT22;2313;48.552;9.370;2023-04-24T11:56:57;12.30;94.00
4602;DHT22;2313;48.552;9.370;2023-04-24T11:59:23;12.40;93.30
4602;DHT22;2313;48.552;9.370;2023-04-24T12:01:49;12.30;93.10
4602;DHT22;2313;48.552;9.370;2023-04-24T12:04:16;12.20;92.80
4602;DHT22;2313;48.552;9.370;2023-04-24T12:07:02;12.10;92.70
4602;DHT22;2313;48.552;9.370;2023-04-24T12:09:29;12.00;93.40
4602;DHT22;2313;48.552;9.370;2023-04-24T12:12:06;12.10;94.30
4602;DHT22;2313;48.552;9.370;2023-04-24T12:14:32;12.00;94.20
4602;DHT22;2313;48.552;9.370;2023-04-24T12:16:57;11.90;92.90
4602;DHT22;2313;48.552;9.370;2023-04-24T12:19:23;12.00;93.90
4602;DHT22;2313;48.552;9.370;2023-04-24T12:22:00;12.10;94.70
4602;DHT22;2313;48.552;9.370;2023-04-24T12:24:26;12.30;95.00
4602;DHT22;2313;48.552;9.370;2023-04-24T12:26:51;12.40;94.70
4602;DHT22;2313;48.552;9.370;2023-04-24T12:29:22;12.40;92.70
4602;DHT22;2313;48.552;9.370;2023-04-24T12:31:48;12.40;93.80
4602;DHT22;2313;48.552;9.370;2023-04-24T12:34:21;12.40;92.40
4602;DHT22;2313;48.552;9.370;2023-04-24T12:36:47;12.20;92.30
4602;DHT22;2313;48.552;9.370;2023-04-24T12:39:19;12.10;93.20
4602;DHT22;2313;48.552;9.370;2023-04-24T12:41:56;12.10;94.50
4602;DHT22;2313;48.552;9.370;2023-04-24T12:44:33;11.90;95.20
4602;DHT22;2313;48.552;9.370;2023-04-24T12:47:00;11.90;96.10
4602;DHT22;2313;48.552;9.370;2023-04-24T12:49:27;11.80;95.50
4602;DHT22;2313;48.552;9.370;2023-04-24T12:51:53;11.80;94.90
4602;DHT22;2313;48.552;9.370;2023-04-24T12:54:19;11.70;94.40
4602;DHT22;2313;48.552;9.370;2023-04-24T12:56:44;11.70;95.20
4602;DHT22;2313;48.552;9.370;2023-04-24T12:59:10;11.70;94.90
4602;DHT22;2313;48.552;9.370;2023-04-24T13:01:36;11.70;94.40
4602;DHT22;2313;48.552;9.370;2023-04-24T13:04:01;11.80;94.40
4602;DHT22;2313;48.552;9.370;2023-04-24T13:06:27;11.80;94.50
4602;DHT22;2313;48.552;9.370;2023-04-24T13:08:53;11.70;93.30
4602;DHT22;2313;48.552;9.370;2023-04-24T13:11:20;11.80;92.90
4602;DHT22;2313;48.552;9.370;2023-04-24T13:13:47;11.70;93.00
4602;DHT22;2313;48.552;9.370;2023-04-24T13:16:13;11.80;93.60
4602;DHT22;2313;48.552;9.370;2023-04-24T13:18:38;12.10;92.00
4602;DHT22;2313;48.552;9.370;2023-04-24T13:21:04;12.30;92.30
4602;DHT22;2313;48.552;9.370;2023-04-24T13:23:29;12.90;93.60
4602;DHT22;2313;48.552;9.370;2023-04-24T13:25:55;13.30;91.20
4602;DHT22;2313;48.552;9.370;2023-04-24T13:28:24;14.20;92.30
4602;DHT22;2313;48.552;9.370;2023-04-24T13:30:50;14.40;90.40
4602;DHT22;2313;48.552;9.370;2023-04-24T13:33:16;13.90;88.00
4602;DHT22;2313;48.552;9.370;2023-04-24T13:35:42;13.70;90.50
4602;DHT22;2313;48.552;9.370;2023-04-24T13:38:07;13.50;87.30
4602;DHT22;2313;48.552;9.370;2023-04-24T13:40:33;13.60;86.30
4602;DHT22;2313;48.552;9.370;2023-04-24T13:42:59;13.70;89.50
4602;DHT22;2313;48.552;9.370;2023-04-24T13:45:26;13.10;89.50
4602;DHT22;2313;48.552;9.370;2023-04-24T13:47:52;13.00;90.60
4602;DHT22;2313;48.552;9.370;2023-04-24T13:50:19;13.00;90.60
4602;DHT22;2313;48.552;9.370;2023-04-24T13:52:45;13.00;90.90
4602;DHT22;2313;48.552;9.370;2023-04-24T13:55:10;12.80;90.10
4602;DHT22;2313;48.552;9.370;2023-04-24T13:57:36;12.70;90.70
4602;DHT22;2313;48.552;9.370;2023-04-24T14:00:02;12.60;91.80
4602;DHT22;2313;48.552;9.370;2023-04-24T14:02:29;12.40;91.30
4602;DHT22;2313;48.552;9.370;2023-04-24T14:04:55;12.50;92.90
4602;DHT22;2313;48.552;9.370;2023-04-24T14:07:21;12.50;92.50
4602;DHT22;2313;48.552;9.370;2023-04-24T14:09:46;12.50;91.80
4602;DHT22;2313;48.552;9.370;2023-04-24T14:12:12;12.50;91.20
4602;DHT22;2313;48.552;9.370;2023-04-24T14:14:39;12.50;91.50
4602;DHT22;2313;48.552;9.370;2023-04-24T14:17:05;12.50;92.50
4602;DHT22;2313;48.552;9.370;2023-04-24T14:19:31;12.40;92.20
4602;DHT22;2313;48.552;9.370;2023-04-24T14:21:56;12.40;91.90
4602;DHT22;2313;48.552;9.370;2023-04-24T14:24:23;12.40;93.30
4602;DHT22;2313;48.552;9.370;2023-04-24T14:26:49;12.30;92.20
4602;DHT22;2313;48.552;9.370;2023-04-24T14:29:15;12.30;93.00
4602;DHT22;2313;48.552;9.370;2023-04-24T14:31:41;12.30;92.80
4602;DHT22;2313;48.552;9.370;2023-04-24T14:34:07;12.30;92.20
4602;DHT22;2313;48.552;9.370;2023-04-24T14:36:33;12.30;93.00
4602;DHT22;2313;48.552;9.370;2023-04-24T14:38:58;12.30;93.20
4602;DHT22;2313;48.552;9.370;2023-04-24T14:41:24;12.20;92.20
4602;DHT22;2313;48.552;9.370;2023-04-24T14:43:49;12.00;90.60
4602;DHT22;2313;48.552;9.370;2023-04-24T14:46:15;11.80;89.70
4602;DHT22;2313;48.552;9.370;2023-04-24T14:48:41;11.80;90.80
4602;DHT22;2313;48.552;9.370;2023-04-24T14:51:06;11.90;90.60
4602;DHT22;2313;48.552;9.370;2023-04-24T14:53:32;11.90;90.90
4602;DHT22;2313;48.552;9.370;2023-04-24T14:55:57;12.00;91.70
4602;DHT22;2313;48.552;9.370;2023-04-24T14:58:23;11.90;92.50
4602;DHT22;2313;48.552;9.370;2023-04-24T15:00:48;12.00;92.20
4602;DHT22;2313;48.552;9.370;2023-04-24T15:03:19;12.00;92.40
4602;DHT22;2313;48.552;9.370;2023-04-24T15:05:45;12.00;92.20
4602;DHT22;2313;48.552;9.370;2023-04-24T15:08:11;12.00;92.20
4602;DHT22;2313;48.552;9.370;2023-04-24T15:10:37;12.00;93.10
4602;DHT22;2313;48.552;9.370;2023-04-24T15:13:02;12.10;91.80
4602;DHT22;2313;48.552;9.370;2023-04-24T15:15:28;12.10;92.30
4602;DHT22;2313;48.552;9.370;2023-04-24T15:17:53;12.00;92.40
4602;DHT22;2313;48.552;9.370;2023-04-24T15:20:19;12.00;93.30
4602;DHT22;2313;48.552;9.370;2023-04-24T15:22:45;12.10;92.60
4602;DHT22;2313;48.552;9.370;2023-04-24T15:25:10;12.00;92.20
4602;DHT22;2313;48.552;9.370;2023-04-24T15:27:43;12.10;92.20
4602;DHT22;2313;48.552;9.370;2023-04-24T15:30:10;12.00;92.20
4602;DHT22;2313;48.552;9.370;2023-04-24T15:32:36;12.00;92.00
4602;DHT22;2313;48.552;9.370;2023-04-24T15:35:02;12.00;92.20
4602;DHT22;2313;48.552;9.370;2023-04-24T15:37:28;12.10;92.10
4602;DHT22;2313;48.552;9.370;2023-04-24T15:39:53;12.10;92.20
4602;DHT22;2313;48.552;9.370;2023-04-24T15:42:19;12.10;92.90
4602;DHT22;2313;48.552;9.370;2023-04-24T15:44:44;12.10;92.50
4602;DHT22;2313;48.552;9.370;2023-04-24T15:47:10;12.00;92.20
4602;DHT22;2313;48.552;9.370;2023-04-24T15:49:38;12.10;93.30
4602;DHT22;2313;48.552;9.370;2023-04-24T15:52:04;12.10;93.00
4602;DHT22;2313;48.552;9.370;2023-04-24T15:54:30;12.00;92.10
4602;DHT22;2313;48.552;9.370;2023-04-24T15:56:55;12.00;92.80
4602;DHT22;2313;48.552;9.370;2023-04-24T15:59:21;12.10;94.20
4602;DHT22;2313;48.552;9.370;2023-04-24T16:01:48;12.10;93.20
4602;DHT22;2313;48.552;9.370;2023-04-24T16:04:14;12.00;92.70
4602;DHT22;2313;48.552;9.370;2023-04-24T16:06:39;12.30;92.40
4602;DHT22;2313;48.552;9.370;2023-04-24T16:09:05;12.50;92.30
4602;DHT22;2313;48.552;9.370;2023-04-24T16:11:32;12.50;91.80
4602;DHT22;2313;48.552;9.370;2023-04-24T16:13:57;12.50;91.90
4602;DHT22;2313;48.552;9.370;2023-04-24T16:16:23;12.50;91.80